Terminal Aerodrome Forecast
Issued by NWS

Home | Current Version | Previous Version | Text Only | Print | Product List | Glossary On
Versions: 1 2 3 4 5 6 7 8 9 10 11 12 13 14 15 16 17 18 19 20 21 22 23 24 25 26 27 28 29 30 31 32 33 34 35 36 37 38 39 40 41 42 43 44 45 46 47 48 49 50
000
FTAK31 PANC 260537
TAFAIL
TAF
PAIL 260537Z 2606/2706 21007KT P6SM VCSH SCT008 SCT025 BKN030
      TEMPO 2606/2609 21010KT 6SM -SHRASN BR SCT008 BKN025
     FM260900 18010KT P6SM VCSH SCT008 BKN015
     FM261300 14008KT 6SM -SHSN SCT008 BKN015 OVC030
     FM261500 12008KT 2SM -SHSN BR BKN008 BKN020
     FM262000 21009KT P6SM VCSH SCT008 BKN025 BKN050
     FM262300 25009KT P6SM SCT025 BKN050
     FM270200 32010KT P6SM SCT025 BKN050=

USA.gov is the U.S. government's official web portal to all federal, state and local government web resources and services.